sensor_id;sensor_type;location;lat;lon;timestamp;pressure;altitude;pressure_sealevel;temperature;humidity
21980;BME280;11154;48.558;9.234;2022-07-06T00:00:55;98068.47;;;18.79;68.01
21980;BME280;11154;48.558;9.234;2022-07-06T00:02:56;98075.06;;;18.70;67.92
21980;BME280;11154;48.558;9.234;2022-07-06T00:04:58;98077.09;;;18.68;69.07
21980;BME280;11154;48.558;9.234;2022-07-06T00:07:00;98076.69;;;18.64;68.84
21980;BME280;11154;48.558;9.234;2022-07-06T00:09:02;98079.13;;;18.59;70.35
21980;BME280;11154;48.558;9.234;2022-07-06T00:11:04;98072.28;;;18.57;70.92
21980;BME280;11154;48.558;9.234;2022-07-06T00:13:07;98074.34;;;18.55;71.27
21980;BME280;11154;48.558;9.234;2022-07-06T00:15:09;98074.75;;;18.52;71.65
21980;BME280;11154;48.558;9.234;2022-07-06T00:17:11;98078.03;;;18.47;71.91
21980;BME280;11154;48.558;9.234;2022-07-06T00:19:13;98076.13;;;18.41;72.56
21980;BME280;11154;48.558;9.234;2022-07-06T00:21:15;98075.81;;;18.30;73.89
21980;BME280;11154;48.558;9.234;2022-07-06T00:23:16;98076.69;;;18.37;72.98
21980;BME280;11154;48.558;9.234;2022-07-06T00:25:18;98077.06;;;18.34;72.44
21980;BME280;11154;48.558;9.234;2022-07-06T00:27:20;98067.81;;;18.36;71.92
21980;BME280;11154;48.558;9.234;2022-07-06T00:29:23;98072.69;;;18.26;72.95
21980;BME280;11154;48.558;9.234;2022-07-06T00:31:24;98067.06;;;18.21;74.23
21980;BME280;11154;48.558;9.234;2022-07-06T00:33:27;98082.06;;;18.09;74.17
21980;BME280;11154;48.558;9.234;2022-07-06T00:35:28;98083.84;;;18.03;74.98
21980;BME280;11154;48.558;9.234;2022-07-06T00:37:30;98084.53;;;18.11;75.09
21980;BME280;11154;48.558;9.234;2022-07-06T00:39:31;98081.66;;;18.12;73.78
21980;BME280;11154;48.558;9.234;2022-07-06T00:41:33;98084.16;;;18.14;74.43
21980;BME280;11154;48.558;9.234;2022-07-06T00:43:48;98082.69;;;18.11;75.08
21980;BME280;11154;48.558;9.234;2022-07-06T00:45:52;98088.47;;;18.08;76.00
21980;BME280;11154;48.558;9.234;2022-07-06T00:47:53;98083.28;;;18.07;76.57
21980;BME280;11154;48.558;9.234;2022-07-06T00:49:55;98082.06;;;18.09;76.59
21980;BME280;11154;48.558;9.234;2022-07-06T00:52:15;98081.19;;;18.09;76.89
21980;BME280;11154;48.558;9.234;2022-07-06T00:54:17;98080.38;;;18.08;76.56
21980;BME280;11154;48.558;9.234;2022-07-06T00:56:19;98082.88;;;18.10;76.69
21980;BME280;11154;48.558;9.234;2022-07-06T00:58:21;98075.00;;;18.08;76.76
21980;BME280;11154;48.558;9.234;2022-07-06T01:00:24;98083.72;;;18.10;76.40
21980;BME280;11154;48.558;9.234;2022-07-06T01:02:30;98081.81;;;18.05;76.75
21980;BME280;11154;48.558;9.234;2022-07-06T01:04:32;98081.38;;;18.01;76.92
21980;BME280;11154;48.558;9.234;2022-07-06T01:06:33;98076.78;;;18.02;76.92
21980;BME280;11154;48.558;9.234;2022-07-06T01:08:35;98075.91;;;17.95;77.39
21980;BME280;11154;48.558;9.234;2022-07-06T01:10:37;98077.38;;;17.97;77.66
21980;BME280;11154;48.558;9.234;2022-07-06T01:12:40;98078.72;;;17.87;77.95
21980;BME280;11154;48.558;9.234;2022-07-06T01:14:43;98073.75;;;17.84;77.90
21980;BME280;11154;48.558;9.234;2022-07-06T01:16:45;98076.44;;;17.84;77.11
21980;BME280;11154;48.558;9.234;2022-07-06T01:18:48;98082.19;;;17.81;78.09
21980;BME280;11154;48.558;9.234;2022-07-06T01:20:51;98078.88;;;17.79;78.29
21980;BME280;11154;48.558;9.234;2022-07-06T01:22:53;98079.25;;;17.76;77.70
21980;BME280;11154;48.558;9.234;2022-07-06T01:24:56;98086.66;;;17.74;78.75
21980;BME280;11154;48.558;9.234;2022-07-06T01:26:57;98077.13;;;17.71;79.17
21980;BME280;11154;48.558;9.234;2022-07-06T01:28:59;98065.47;;;17.64;78.77
21980;BME280;11154;48.558;9.234;2022-07-06T01:31:01;98067.13;;;17.65;78.93
21980;BME280;11154;48.558;9.234;2022-07-06T01:33:03;98065.66;;;17.63;78.54
21980;BME280;11154;48.558;9.234;2022-07-06T01:35:06;98071.63;;;17.58;78.75
21980;BME280;11154;48.558;9.234;2022-07-06T01:37:09;98067.00;;;17.52;79.89
21980;BME280;11154;48.558;9.234;2022-07-06T01:39:11;98070.72;;;17.51;79.55
21980;BME280;11154;48.558;9.234;2022-07-06T01:41:12;98072.22;;;17.54;79.73
21980;BME280;11154;48.558;9.234;2022-07-06T01:43:14;98067.66;;;17.54;79.22
21980;BME280;11154;48.558;9.234;2022-07-06T01:45:16;98065.94;;;17.47;79.06
21980;BME280;11154;48.558;9.234;2022-07-06T01:47:17;98069.53;;;17.54;79.02
21980;BME280;11154;48.558;9.234;2022-07-06T01:49:19;98068.63;;;17.47;79.23
21980;BME280;11154;48.558;9.234;2022-07-06T01:51:21;98069.38;;;17.41;79.55
21980;BME280;11154;48.558;9.234;2022-07-06T01:53:24;98070.97;;;17.21;79.68
21980;BME280;11154;48.558;9.234;2022-07-06T01:55:26;98066.53;;;17.28;79.49
21980;BME280;11154;48.558;9.234;2022-07-06T01:57:27;98067.63;;;17.34;79.25
21980;BME280;11154;48.558;9.234;2022-07-06T01:59:29;98074.88;;;17.33;78.86
21980;BME280;11154;48.558;9.234;2022-07-06T02:01:31;98069.03;;;17.30;79.79
21980;BME280;11154;48.558;9.234;2022-07-06T02:03:32;98079.78;;;17.30;80.68
21980;BME280;11154;48.558;9.234;2022-07-06T02:05:34;98081.81;;;17.28;80.63
21980;BME280;11154;48.558;9.234;2022-07-06T02:07:35;98076.63;;;17.26;80.05
21980;BME280;11154;48.558;9.234;2022-07-06T02:09:38;98081.72;;;17.21;81.09
21980;BME280;11154;48.558;9.234;2022-07-06T02:11:40;98076.81;;;17.25;81.71
21980;BME280;11154;48.558;9.234;2022-07-06T02:13:42;98076.97;;;17.23;81.65
21980;BME280;11154;48.558;9.234;2022-07-06T02:15:43;98073.66;;;17.21;81.41
21980;BME280;11154;48.558;9.234;2022-07-06T02:17:45;98068.28;;;17.21;80.36
21980;BME280;11154;48.558;9.234;2022-07-06T02:19:47;98074.44;;;17.15;81.25
21980;BME280;11154;48.558;9.234;2022-07-06T02:21:48;98073.50;;;17.08;82.12
21980;BME280;11154;48.558;9.234;2022-07-06T02:23:50;98075.63;;;17.13;82.29
21980;BME280;11154;48.558;9.234;2022-07-06T02:25:53;98071.09;;;17.13;81.65
21980;BME280;11154;48.558;9.234;2022-07-06T02:27:55;98068.75;;;17.10;81.37
21980;BME280;11154;48.558;9.234;2022-07-06T02:29:57;98072.75;;;17.14;82.11
21980;BME280;11154;48.558;9.234;2022-07-06T02:31:58;98078.03;;;17.08;82.26
21980;BME280;11154;48.558;9.234;2022-07-06T02:34:00;98084.63;;;17.05;82.13
21980;BME280;11154;48.558;9.234;2022-07-06T02:36:02;98082.94;;;17.04;82.15
21980;BME280;11154;48.558;9.234;2022-07-06T02:38:04;98081.66;;;17.00;82.50
21980;BME280;11154;48.558;9.234;2022-07-06T02:40:06;98091.50;;;16.93;82.54
21980;BME280;11154;48.558;9.234;2022-07-06T02:42:09;98079.81;;;16.86;82.76
21980;BME280;11154;48.558;9.234;2022-07-06T02:44:11;98091.44;;;16.87;82.86
21980;BME280;11154;48.558;9.234;2022-07-06T02:46:13;98086.34;;;16.77;82.98
21980;BME280;11154;48.558;9.234;2022-07-06T02:48:14;98088.91;;;16.85;82.74
21980;BME280;11154;48.558;9.234;2022-07-06T02:50:16;98087.53;;;16.89;81.67
21980;BME280;11154;48.558;9.234;2022-07-06T02:52:18;98093.25;;;16.86;81.50
21980;BME280;11154;48.558;9.234;2022-07-06T02:54:20;98092.16;;;16.81;81.67
21980;BME280;11154;48.558;9.234;2022-07-06T02:56:21;98089.78;;;16.71;82.38
21980;BME280;11154;48.558;9.234;2022-07-06T02:58:24;98092.63;;;16.70;82.59
21980;BME280;11154;48.558;9.234;2022-07-06T03:00:26;98102.63;;;16.62;82.79
21980;BME280;11154;48.558;9.234;2022-07-06T03:02:28;98096.69;;;16.66;82.29
21980;BME280;11154;48.558;9.234;2022-07-06T03:04:29;98105.59;;;16.66;82.34
21980;BME280;11154;48.558;9.234;2022-07-06T03:06:32;98105.22;;;16.69;81.90
21980;BME280;11154;48.558;9.234;2022-07-06T03:08:34;98108.47;;;16.65;81.73
21980;BME280;11154;48.558;9.234;2022-07-06T03:10:36;98118.84;;;16.68;82.77
21980;BME280;11154;48.558;9.234;2022-07-06T03:12:37;98119.31;;;16.71;83.81
21980;BME280;11154;48.558;9.234;2022-07-06T03:14:41;98110.94;;;16.66;84.16
21980;BME280;11154;48.558;9.234;2022-07-06T03:16:43;98110.59;;;16.69;83.98
21980;BME280;11154;48.558;9.234;2022-07-06T03:18:44;98108.91;;;16.68;83.95
21980;BME280;11154;48.558;9.234;2022-07-06T03:20:46;98112.81;;;16.66;84.00
21980;BME280;11154;48.558;9.234;2022-07-06T03:22:47;98121.41;;;16.62;83.87
21980;BME280;11154;48.558;9.234;2022-07-06T03:24:49;98117.72;;;16.63;84.34
21980;BME280;11154;48.558;9.234;2022-07-06T03:26:51;98120.03;;;16.65;84.21
21980;BME280;11154;48.558;9.234;2022-07-06T03:28:52;98124.38;;;16.66;84.36
21980;BME280;11154;48.558;9.234;2022-07-06T03:30:55;98123.38;;;16.67;84.33
21980;BME280;11154;48.558;9.234;2022-07-06T03:32:57;98127.38;;;16.71;83.83
21980;BME280;11154;48.558;9.234;2022-07-06T03:34:59;98130.06;;;16.71;84.15
21980;BME280;11154;48.558;9.234;2022-07-06T03:37:00;98119.31;;;16.71;84.36
21980;BME280;11154;48.558;9.234;2022-07-06T03:39:02;98120.88;;;16.66;84.17
21980;BME280;11154;48.558;9.234;2022-07-06T03:41:04;98120.31;;;16.70;83.52
21980;BME280;11154;48.558;9.234;2022-07-06T03:43:06;98121.41;;;16.62;83.93
21980;BME280;11154;48.558;9.234;2022-07-06T03:45:10;98116.31;;;16.66;83.91
21980;BME280;11154;48.558;9.234;2022-07-06T03:47:13;98118.47;;;16.57;84.07
21980;BME280;11154;48.558;9.234;2022-07-06T03:49:15;98120.88;;;16.52;84.38
21980;BME280;11154;48.558;9.234;2022-07-06T03:51:17;98122.63;;;16.59;83.72
21980;BME280;11154;48.558;9.234;2022-07-06T03:53:19;98125.66;;;16.56;83.89
21980;BME280;11154;48.558;9.234;2022-07-06T03:55:20;98125.50;;;16.58;84.83
21980;BME280;11154;48.558;9.234;2022-07-06T03:57:22;98121.06;;;16.64;83.11
21980;BME280;11154;48.558;9.234;2022-07-06T03:59:24;98128.47;;;16.63;83.50
21980;BME280;11154;48.558;9.234;2022-07-06T04:01:26;98133.00;;;16.62;83.74
21980;BME280;11154;48.558;9.234;2022-07-06T04:03:29;98134.50;;;16.64;83.25
21980;BME280;11154;48.558;9.234;2022-07-06T04:05:30;98134.38;;;16.58;83.32
21980;BME280;11154;48.558;9.234;2022-07-06T04:07:32;98128.00;;;16.59;83.41
21980;BME280;11154;48.558;9.234;2022-07-06T04:09:34;98129.88;;;16.59;83.49
21980;BME280;11154;48.558;9.234;2022-07-06T04:11:35;98128.81;;;16.60;84.06
21980;BME280;11154;48.558;9.234;2022-07-06T04:13:37;98131.97;;;16.49;84.67
21980;BME280;11154;48.558;9.234;2022-07-06T04:15:39;98137.59;;;16.54;84.77
21980;BME280;11154;48.558;9.234;2022-07-06T04:17:40;98137.59;;;16.54;85.21
21980;BME280;11154;48.558;9.234;2022-07-06T04:19:57;98140.50;;;16.52;83.53
21980;BME280;11154;48.558;9.234;2022-07-06T04:21:59;98130.13;;;16.49;84.10
21980;BME280;11154;48.558;9.234;2022-07-06T04:24:00;98129.28;;;16.49;84.36
21980;BME280;11154;48.558;9.234;2022-07-06T04:26:02;98132.97;;;16.48;84.53
21980;BME280;11154;48.558;9.234;2022-07-06T04:28:04;98132.63;;;16.51;84.05
21980;BME280;11154;48.558;9.234;2022-07-06T04:30:06;98135.97;;;16.53;83.52
21980;BME280;11154;48.558;9.234;2022-07-06T04:32:08;98129.88;;;16.59;83.67
21980;BME280;11154;48.558;9.234;2022-07-06T04:34:10;98129.66;;;16.60;83.71
21980;BME280;11154;48.558;9.234;2022-07-06T04:36:13;98139.88;;;16.64;83.36
21980;BME280;11154;48.558;9.234;2022-07-06T04:38:15;98135.22;;;16.59;83.86
21980;BME280;11154;48.558;9.234;2022-07-06T04:40:16;98138.75;;;16.59;84.29
21980;BME280;11154;48.558;9.234;2022-07-06T04:42:18;98136.72;;;16.61;84.29
21980;BME280;11154;48.558;9.234;2022-07-06T04:44:20;98148.94;;;16.63;84.19
21980;BME280;11154;48.558;9.234;2022-07-06T04:46:21;98141.69;;;16.64;84.11
21980;BME280;11154;48.558;9.234;2022-07-06T04:48:24;98146.44;;;16.62;83.74
21980;BME280;11154;48.558;9.234;2022-07-06T04:50:26;98147.94;;;16.64;83.32
21980;BME280;11154;48.558;9.234;2022-07-06T04:52:29;98157.00;;;16.63;83.74
21980;BME280;11154;48.558;9.234;2022-07-06T04:54:31;98147.72;;;16.66;83.96
21980;BME280;11154;48.558;9.234;2022-07-06T04:56:32;98154.22;;;16.71;83.51
21980;BME280;11154;48.558;9.234;2022-07-06T04:58:34;98151.16;;;16.74;83.24
21980;BME280;11154;48.558;9.234;2022-07-06T05:00:36;98146.19;;;16.71;83.16
21980;BME280;11154;48.558;9.234;2022-07-06T05:02:38;98147.72;;;16.80;82.57
21980;BME280;11154;48.558;9.234;2022-07-06T05:04:39;98153.75;;;16.82;80.88
21980;BME280;11154;48.558;9.234;2022-07-06T05:06:41;98152.00;;;16.89;81.31
21980;BME280;11154;48.558;9.234;2022-07-06T05:08:44;98151.88;;;16.97;81.03
21980;BME280;11154;48.558;9.234;2022-07-06T05:10:46;98159.31;;;16.95;80.46
21980;BME280;11154;48.558;9.234;2022-07-06T05:12:49;98157.38;;;17.04;80.44
21980;BME280;11154;48.558;9.234;2022-07-06T05:14:50;98165.25;;;17.05;81.04
21980;BME280;11154;48.558;9.234;2022-07-06T05:16:52;98166.16;;;17.12;80.58
21980;BME280;11154;48.558;9.234;2022-07-06T05:18:54;98170.25;;;17.23;80.57
21980;BME280;11154;48.558;9.234;2022-07-06T05:20:55;98164.66;;;17.24;80.45
21980;BME280;11154;48.558;9.234;2022-07-06T05:22:57;98176.38;;;17.31;80.47
21980;BME280;11154;48.558;9.234;2022-07-06T05:25:00;98174.72;;;17.30;80.38
21980;BME280;11154;48.558;9.234;2022-07-06T05:27:03;98170.66;;;17.34;80.78
21980;BME280;11154;48.558;9.234;2022-07-06T05:29:05;98169.63;;;17.35;80.56
21980;BME280;11154;48.558;9.234;2022-07-06T05:31:06;98166.53;;;17.38;80.66
21980;BME280;11154;48.558;9.234;2022-07-06T05:33:08;98167.66;;;17.43;81.60
21980;BME280;11154;48.558;9.234;2022-07-06T05:35:10;98166.19;;;17.41;81.29
21980;BME280;11154;48.558;9.234;2022-07-06T05:37:12;98172.91;;;17.51;81.90
21980;BME280;11154;48.558;9.234;2022-07-06T05:39:13;98177.38;;;17.59;81.04
21980;BME280;11154;48.558;9.234;2022-07-06T05:41:20;98171.03;;;17.66;82.20
21980;BME280;11154;48.558;9.234;2022-07-06T05:43:22;98164.44;;;17.69;82.71
21980;BME280;11154;48.558;9.234;2022-07-06T05:45:24;98166.75;;;17.72;80.83
21980;BME280;11154;48.558;9.234;2022-07-06T05:47:26;98170.34;;;17.79;80.61
21980;BME280;11154;48.558;9.234;2022-07-06T05:49:41;98165.44;;;17.82;81.55
21980;BME280;11154;48.558;9.234;2022-07-06T05:52:00;98166.50;;;17.88;82.92
21980;BME280;11154;48.558;9.234;2022-07-06T05:54:02;98167.53;;;17.87;80.60
21980;BME280;11154;48.558;9.234;2022-07-06T05:56:04;98169.09;;;17.96;80.67
21980;BME280;11154;48.558;9.234;2022-07-06T05:58:07;98165.63;;;18.02;79.14
21980;BME280;11154;48.558;9.234;2022-07-06T06:00:09;98172.69;;;18.03;76.71
21980;BME280;11154;48.558;9.234;2022-07-06T06:02:11;98172.72;;;18.09;77.24
21980;BME280;11154;48.558;9.234;2022-07-06T06:04:12;98174.22;;;18.11;77.95
21980;BME280;11154;48.558;9.234;2022-07-06T06:06:14;98174.47;;;18.16;78.31
21980;BME280;11154;48.558;9.234;2022-07-06T06:08:16;98170.41;;;18.20;76.40
21980;BME280;11154;48.558;9.234;2022-07-06T06:10:18;98178.34;;;18.28;76.66
21980;BME280;11154;48.558;9.234;2022-07-06T06:12:22;98177.16;;;18.37;76.26
21980;BME280;11154;48.558;9.234;2022-07-06T06:14:25;98173.09;;;18.41;77.02
21980;BME280;11154;48.558;9.234;2022-07-06T06:16:27;98177.28;;;18.50;77.13
21980;BME280;11154;48.558;9.234;2022-07-06T06:18:28;98183.72;;;18.49;71.85
21980;BME280;11154;48.558;9.234;2022-07-06T06:20:30;98177.34;;;18.57;71.63
21980;BME280;11154;48.558;9.234;2022-07-06T06:22:31;98175.47;;;18.57;70.68
21980;BME280;11154;48.558;9.234;2022-07-06T06:24:33;98184.06;;;18.67;70.98
21980;BME280;11154;48.558;9.234;2022-07-06T06:26:35;98184.16;;;18.80;74.72
21980;BME280;11154;48.558;9.234;2022-07-06T06:28:36;98185.06;;;18.87;73.35
21980;BME280;11154;48.558;9.234;2022-07-06T06:30:40;98188.38;;;18.89;73.12
21980;BME280;11154;48.558;9.234;2022-07-06T06:32:41;98186.56;;;18.96;72.06
21980;BME280;11154;48.558;9.234;2022-07-06T06:34:43;98191.41;;;19.07;72.37
21980;BME280;11154;48.558;9.234;2022-07-06T06:36:45;98182.69;;;19.05;69.80
21980;BME280;11154;48.558;9.234;2022-07-06T06:38:46;98187.00;;;18.99;68.57
21980;BME280;11154;48.558;9.234;2022-07-06T06:40:48;98181.16;;;18.96;68.59
21980;BME280;11154;48.558;9.234;2022-07-06T06:42:50;98185.25;;;19.13;69.94
21980;BME280;11154;48.558;9.234;2022-07-06T06:44:51;98180.09;;;19.18;67.64
21980;BME280;11154;48.558;9.234;2022-07-06T06:46:55;98186.09;;;19.20;68.19
21980;BME280;11154;48.558;9.234;2022-07-06T06:48:56;98179.06;;;19.19;67.52
21980;BME280;11154;48.558;9.234;2022-07-06T06:50:58;98176.19;;;19.27;69.17
21980;BME280;11154;48.558;9.234;2022-07-06T06:53:00;98187.22;;;19.32;67.50
21980;BME280;11154;48.558;9.234;2022-07-06T06:55:01;98179.75;;;19.34;66.81
21980;BME280;11154;48.558;9.234;2022-07-06T06:57:03;98174.19;;;19.42;66.96
21980;BME280;11154;48.558;9.234;2022-07-06T06:59:05;98179.75;;;19.34;66.45
21980;BME280;11154;48.558;9.234;2022-07-06T07:01:07;98184.53;;;19.32;67.19
21980;BME280;11154;48.558;9.234;2022-07-06T07:03:10;98177.19;;;19.59;70.25
21980;BME280;11154;48.558;9.234;2022-07-06T07:05:11;98176.69;;;19.96;65.26
21980;BME280;11154;48.558;9.234;2022-07-06T07:07:13;98180.00;;;19.92;65.33
21980;BME280;11154;48.558;9.234;2022-07-06T07:09:15;98179.66;;;20.01;65.51
21980;BME280;11154;48.558;9.234;2022-07-06T07:11:16;98176.53;;;20.04;64.94
21980;BME280;11154;48.558;9.234;2022-07-06T07:13:18;98180.72;;;20.13;63.07
21980;BME280;11154;48.558;9.234;2022-07-06T07:15:20;98181.91;;;19.98;63.56
21980;BME280;11154;48.558;9.234;2022-07-06T07:17:21;98178.50;;;19.76;63.15
21980;BME280;11154;48.558;9.234;2022-07-06T07:19:25;98172.16;;;20.03;70.76
21980;BME280;11154;48.558;9.234;2022-07-06T07:21:26;98172.81;;;20.25;68.86
21980;BME280;11154;48.558;9.234;2022-07-06T07:23:28;98171.56;;;20.21;66.57
21980;BME280;11154;48.558;9.234;2022-07-06T07:25:30;98169.72;;;20.34;64.80
21980;BME280;11154;48.558;9.234;2022-07-06T07:27:32;98164.91;;;20.23;63.13
21980;BME280;11154;48.558;9.234;2022-07-06T07:29:33;98176.56;;;20.30;63.91
21980;BME280;11154;48.558;9.234;2022-07-06T07:31:35;98167.03;;;20.40;63.35
21980;BME280;11154;48.558;9.234;2022-07-06T07:33:37;98164.94;;;20.49;63.00
21980;BME280;11154;48.558;9.234;2022-07-06T07:35:40;98160.78;;;20.59;61.76
21980;BME280;11154;48.558;9.234;2022-07-06T07:37:42;98171.81;;;20.45;62.12
21980;BME280;11154;48.558;9.234;2022-07-06T07:39:43;98168.25;;;20.25;62.62
21980;BME280;11154;48.558;9.234;2022-07-06T07:41:45;98166.59;;;20.31;62.96
21980;BME280;11154;48.558;9.234;2022-07-06T07:43:47;98160.97;;;20.19;62.66
21980;BME280;11154;48.558;9.234;2022-07-06T07:45:48;98161.63;;;20.53;62.37
21980;BME280;11154;48.558;9.234;2022-07-06T07:47:50;98159.53;;;20.49;61.85
21980;BME280;11154;48.558;9.234;2022-07-06T07:49:52;98153.72;;;20.71;62.23
21980;BME280;11154;48.558;9.234;2022-07-06T07:51:55;98163.69;;;20.64;62.39
21980;BME280;11154;48.558;9.234;2022-07-06T07:53:57;98158.50;;;20.56;60.77
21980;BME280;11154;48.558;9.234;2022-07-06T07:55:59;98158.69;;;20.55;62.43
21980;BME280;11154;48.558;9.234;2022-07-06T07:58:01;98152.28;;;20.82;61.77
21980;BME280;11154;48.558;9.234;2022-07-06T08:00:04;98154.97;;;20.82;60.13
21980;BME280;11154;48.558;9.234;2022-07-06T08:02:06;98151.44;;;20.75;61.24
21980;BME280;11154;48.558;9.234;2022-07-06T08:04:07;98159.13;;;21.04;62.41
21980;BME280;11154;48.558;9.234;2022-07-06T08:06:09;98157.84;;;21.12;62.85
21980;BME280;11154;48.558;9.234;2022-07-06T08:08:12;98151.84;;;20.98;59.10
21980;BME280;11154;48.558;9.234;2022-07-06T08:10:14;98160.78;;;20.92;59.26
21980;BME280;11154;48.558;9.234;2022-07-06T08:12:16;98159.56;;;20.88;58.93
21980;BME280;11154;48.558;9.234;2022-07-06T08:14:17;98156.16;;;21.11;63.55
21980;BME280;11154;48.558;9.234;2022-07-06T08:16:19;98158.25;;;21.22;60.72
21980;BME280;11154;48.558;9.234;2022-07-06T08:18:21;98152.78;;;21.35;60.16
21980;BME280;11154;48.558;9.234;2022-07-06T08:20:22;98160.19;;;21.53;62.02
21980;BME280;11154;48.558;9.234;2022-07-06T08:22:24;98158.75;;;21.50;57.21
21980;BME280;11154;48.558;9.234;2022-07-06T08:24:28;98160.94;;;21.22;56.15
21980;BME280;11154;48.558;9.234;2022-07-06T08:26:30;98156.56;;;21.15;57.03
21980;BME280;11154;48.558;9.234;2022-07-06T08:28:32;98149.00;;;21.43;57.48
21980;BME280;11154;48.558;9.234;2022-07-06T08:30:33;98153.53;;;21.62;55.88
21980;BME280;11154;48.558;9.234;2022-07-06T08:32:37;98158.78;;;21.44;56.38
21980;BME280;11154;48.558;9.234;2022-07-06T08:34:38;98149.41;;;21.46;55.21
21980;BME280;11154;48.558;9.234;2022-07-06T08:36:40;98148.38;;;21.41;55.84
21980;BME280;11154;48.558;9.234;2022-07-06T08:38:42;98149.00;;;21.56;56.39
21980;BME280;11154;48.558;9.234;2022-07-06T08:40:47;98154.69;;;21.85;58.95
21980;BME280;11154;48.558;9.234;2022-07-06T08:42:53;98164.38;;;21.55;55.66
21980;BME280;11154;48.558;9.234;2022-07-06T08:44:58;98154.44;;;21.36;55.50
21980;BME280;11154;48.558;9.234;2022-07-06T08:47:05;98163.50;;;21.68;56.79
21980;BME280;11154;48.558;9.234;2022-07-06T08:49:07;98163.72;;;21.66;55.73
21980;BME280;11154;48.558;9.234;2022-07-06T08:51:12;98161.22;;;21.71;56.10
21980;BME280;11154;48.558;9.234;2022-07-06T08:53:14;98157.06;;;21.69;55.49
21980;BME280;11154;48.558;9.234;2022-07-06T08:55:17;98160.91;;;21.92;56.45
21980;BME280;11154;48.558;9.234;2022-07-06T08:57:20;98163.06;;;21.77;54.60
21980;BME280;11154;48.558;9.234;2022-07-06T08:59:22;98156.06;;;21.57;54.51
21980;BME280;11154;48.558;9.234;2022-07-06T09:01:24;98158.56;;;21.58;54.45
21980;BME280;11154;48.558;9.234;2022-07-06T09:03:26;98152.28;;;21.64;54.91
21980;BME280;11154;48.558;9.234;2022-07-06T09:05:29;98151.81;;;21.74;54.56
21980;BME280;11154;48.558;9.234;2022-07-06T09:07:33;98153.84;;;21.84;54.59
21980;BME280;11154;48.558;9.234;2022-07-06T09:09:36;98156.41;;;21.73;54.17
21980;BME280;11154;48.558;9.234;2022-07-06T09:11:38;98153.41;;;21.87;54.23
21980;BME280;11154;48.558;9.234;2022-07-06T09:13:42;98155.94;;;21.82;54.30
21980;BME280;11154;48.558;9.234;2022-07-06T09:15:44;98152.25;;;22.39;66.18
21980;BME280;11154;48.558;9.234;2022-07-06T09:17:45;98159.03;;;22.30;54.10
21980;BME280;11154;48.558;9.234;2022-07-06T09:19:47;98159.66;;;22.19;52.96
21980;BME280;11154;48.558;9.234;2022-07-06T09:21:51;98156.84;;;22.07;52.96
21980;BME280;11154;48.558;9.234;2022-07-06T09:23:54;98159.63;;;22.25;53.82
21980;BME280;11154;48.558;9.234;2022-07-06T09:25:56;98163.16;;;22.26;51.56
21980;BME280;11154;48.558;9.234;2022-07-06T09:27:58;98161.63;;;22.12;52.19
21980;BME280;11154;48.558;9.234;2022-07-06T09:30:02;98168.19;;;22.29;53.02
21980;BME280;11154;48.558;9.234;2022-07-06T09:32:04;98172.97;;;22.33;51.88
21980;BME280;11154;48.558;9.234;2022-07-06T09:34:08;98176.50;;;22.34;51.77
21980;BME280;11154;48.558;9.234;2022-07-06T09:36:10;98168.81;;;22.24;51.61
21980;BME280;11154;48.558;9.234;2022-07-06T09:38:13;98165.72;;;22.21;52.44
21980;BME280;11154;48.558;9.234;2022-07-06T09:40:16;98166.47;;;22.65;62.01
21980;BME280;11154;48.558;9.234;2022-07-06T09:42:24;98165.50;;;22.77;53.48
21980;BME280;11154;48.558;9.234;2022-07-06T09:44:27;98171.41;;;22.74;50.65
21980;BME280;11154;48.558;9.234;2022-07-06T09:46:37;98171.59;;;22.49;50.15
21980;BME280;11154;48.558;9.234;2022-07-06T09:48:39;98166.50;;;22.34;50.52
21980;BME280;11154;48.558;9.234;2022-07-06T09:50:44;98174.41;;;22.60;55.76
21980;BME280;11154;48.558;9.234;2022-07-06T09:52:53;98169.25;;;23.01;53.84
21980;BME280;11154;48.558;9.234;2022-07-06T09:54:55;98174.22;;;23.10;53.77
21980;BME280;11154;48.558;9.234;2022-07-06T09:56:57;98185.88;;;22.86;51.66
21980;BME280;11154;48.558;9.234;2022-07-06T09:58:59;98177.84;;;23.22;55.75
21980;BME280;11154;48.558;9.234;2022-07-06T10:01:04;98169.41;;;23.12;53.14
21980;BME280;11154;48.558;9.234;2022-07-06T10:03:07;98177.56;;;23.30;54.57
21980;BME280;11154;48.558;9.234;2022-07-06T10:05:09;98177.19;;;23.02;49.80
21980;BME280;11154;48.558;9.234;2022-07-06T10:07:11;98182.31;;;23.17;54.64
21980;BME280;11154;48.558;9.234;2022-07-06T10:09:14;98181.41;;;22.98;49.51
21980;BME280;11154;48.558;9.234;2022-07-06T10:11:16;98175.50;;;23.01;49.28
21980;BME280;11154;48.558;9.234;2022-07-06T10:13:20;98177.25;;;23.20;49.70
21980;BME280;11154;48.558;9.234;2022-07-06T10:15:24;98177.16;;;23.62;52.70
21980;BME280;11154;48.558;9.234;2022-07-06T10:17:26;98176.84;;;23.77;48.53
21980;BME280;11154;48.558;9.234;2022-07-06T10:19:30;98176.78;;;23.41;47.33
21980;BME280;11154;48.558;9.234;2022-07-06T10:21:33;98172.16;;;23.06;48.53
21980;BME280;11154;48.558;9.234;2022-07-06T10:23:36;98177.81;;;23.04;50.88
21980;BME280;11154;48.558;9.234;2022-07-06T10:25:39;98174.91;;;22.99;49.34
21980;BME280;11154;48.558;9.234;2022-07-06T10:27:42;98183.03;;;22.81;49.48
21980;BME280;11154;48.558;9.234;2022-07-06T10:29:44;98182.06;;;22.69;49.48
21980;BME280;11154;48.558;9.234;2022-07-06T10:31:47;98178.03;;;22.78;50.38
21980;BME280;11154;48.558;9.234;2022-07-06T10:33:49;98177.25;;;22.96;50.56
21980;BME280;11154;48.558;9.234;2022-07-06T10:35:53;98178.97;;;22.90;51.78
21980;BME280;11154;48.558;9.234;2022-07-06T10:38:05;98182.28;;;22.92;50.36
21980;BME280;11154;48.558;9.234;2022-07-06T10:40:09;98179.47;;;22.81;49.95
21980;BME280;11154;48.558;9.234;2022-07-06T10:42:44;98183.84;;;22.82;51.50
21980;BME280;11154;48.558;9.234;2022-07-06T10:44:46;98177.06;;;23.15;56.20
21980;BME280;11154;48.558;9.234;2022-07-06T10:46:52;98174.31;;;23.39;57.33
21980;BME280;11154;48.558;9.234;2022-07-06T10:48:54;98176.28;;;23.50;53.25